Terminal Aerodrome Forecast
Issued by NWS

Home | Current Version | Previous Version | Text Only | Print | Product List | Glossary On
Versions: 1 2 3 4 5 6 7 8 9 10 11 12 13 14 15
000
FTUS46 KPDT 252320
TAFBDN
TAF
KBDN 252320Z 2600/2624 30006KT P6SM SCT060
     FM260300 VRB04KT P6SM BKN200
     FM260900 18005KT P6SM BKN070 BKN150
     FM261500 19008KT P6SM OVC060
     FM262000 19012G20KT 6SM -SHSN OVC040=

USA.gov is the U.S. government's official web portal to all federal, state and local government web resources and services.